Main page
METAR-TAF:

METAR-TAF

Airports :

Lengpui Airport

Aizawl, India

latitude: 23-50-18N, longitude: 92-37-13E, elevation: 405 m

Current weather observation

The report was made 11 hours and 21 minutes ago, at 10:00 UTC
Wind 3 kt from the North/Northeast
Temperature 27°C
Humidity 84%
Pressure 1011 hPa
Visibility: 3000 m
Scattered clouds at a height of 1600 ft
Scattered clouds at a height of 2500 ft
Broken clouds at a height of 10000 ft
mist

METAR: VELP 011000Z 02003KT 3000 BR SCT016 SCT025 BKN100 27/24 Q1011 NOSIG

Time: 02:51 (21:21 UTC)

Forecast

The report was made 13 hours and 21 minutes ago, at 08:00 UTC
Forecast valid from 01 at 09 UTC to 01 at 18 UTC
Wind 3 kt from the North
Visibility: 3000 m
Scattered clouds at a height of 1600 ft
Broken clouds at a height of 10000 ft
haze
Becoming
from 01 at 11 UTC to 01 at 14 UTC
Wind kt from the North
Visibility: 2500 m
Scattered clouds at a height of 10000 ft
mist

TAF: VELP 010800Z 0109/0118 01003KT 3000 HZ SCT016 BKN100 BECMG 0111/0114 00000KT 2500 BR SCT100

Weather observations and forecasts of more than 4000 airports (METAR and TAF reports).

The available stations are represented by yellow and red dots on the map.

Hover mouse over dot to see the name of the station.

Then click to see weather observations and forecasts.

To change the map : click on the green buttons with a black cross to zoom in, on the green button with a dash to zoom out, or on the green arrows for adjacent maps.


METAR-TAF: